Terminal Aerodrome Forecast
Issued by NWS

Home | Current Version | Previous Version | Text Only | Print | Product List | Glossary On
Versions: 1 2 3 4 5 6 7 8 9 10 11 12 13 14 15 16 17 18 19
792
FTUS43 KDTX 121500 AAA
TAFMBS
TAF AMD
KMBS 121500Z 1215/1312 26014G26KT P6SM -SHSN SCT025 OVC035
      TEMPO 1215/1219 2SM -SHSN BKN022 OVC035
     FM121900 31017G28KT P6SM -SHSN SCT028 BKN035
      TEMPO 1219/1222 3SM -SHSN BKN028 OVC035
     FM130300 32013G22KT P6SM -SHSN BKN035=

USA.gov is the U.S. government's official web portal to all federal, state and local government web resources and services.